Time;durP1;ratioP1;P1;durP2;ratioP2;P2;SDS_P1;SDS_P2;PMS_P1;PMS_P2;Temp;Humidity;BMP_temperature;BMP_pressure;BME280_temperature;BME280_humidity;BME280_pressure;Samples;Min_cycle;Max_cycle;Signal;HPM_P1;HPM_P2
2023/01/06 00:02:00;;;;;;;7.68;1.73;;;;;;;10.84;100.00;101892.25;5226128;28;20021;-76
2023/01/06 00:04:30;;;;;;;7.25;1.70;;;;;;;10.86;100.00;101895.66;5213044;28;20032;-76
2023/01/06 00:07:01;;;;;;;7.40;2.00;;;;;;;10.82;100.00;101878.13;5218852;28;20028;-77
2023/01/06 00:09:33;;;;;;;11.10;2.28;;;;;;;10.79;100.00;101881.09;5207419;28;20019;-76
2023/01/06 00:12:04;;;;;;;6.47;1.67;;;;;;;10.77;100.00;101875.88;5226041;28;20529;-76
2023/01/06 00:14:35;;;;;;;9.98;1.65;;;;;;;10.75;100.00;101877.84;5211936;28;20116;-76
2023/01/06 00:17:05;;;;;;;7.53;1.80;;;;;;;10.81;100.00;101871.91;5219098;28;20116;-76
2023/01/06 00:19:36;;;;;;;22.90;2.15;;;;;;;10.80;100.00;101859.50;5221268;28;20021;-76
2023/01/06 00:22:06;;;;;;;7.57;1.73;;;;;;;10.77;100.00;101854.41;5217798;28;20021;-77
2023/01/06 00:24:37;;;;;;;6.25;1.50;;;;;;;10.73;100.00;101852.13;5206343;28;20112;-77
2023/01/06 00:27:07;;;;;;;10.38;1.65;;;;;;;10.74;100.00;101848.47;5205739;28;20025;-76
2023/01/06 00:29:38;;;;;;;6.15;1.58;;;;;;;10.71;100.00;101849.59;5226079;28;20021;-76
2023/01/06 00:32:08;;;;;;;5.05;1.45;;;;;;;10.72;100.00;101850.44;5224366;28;20025;-77
2023/01/06 00:34:38;;;;;;;4.28;1.50;;;;;;;10.72;100.00;101851.28;5213910;28;20111;-77
2023/01/06 00:37:09;;;;;;;7.55;1.92;;;;;;;10.71;100.00;101854.97;5212674;28;20033;-77
2023/01/06 00:39:40;;;;;;;5.70;1.60;;;;;;;10.71;100.00;101859.50;5227910;28;20020;-76
2023/01/06 00:42:10;;;;;;;12.90;1.90;;;;;;;10.70;100.00;101863.19;5215634;28;20393;-77
2023/01/06 00:44:41;;;;;;;7.03;1.80;;;;;;;10.71;100.00;101854.13;5225847;28;20035;-76
2023/01/06 00:47:11;;;;;;;5.45;1.55;;;;;;;10.67;100.00;101850.03;5224587;28;20028;-77
2023/01/06 00:49:42;;;;;;;6.85;1.48;;;;;;;10.68;100.00;101855.25;5213136;28;20029;-76
2023/01/06 00:52:13;;;;;;;4.57;1.40;;;;;;;10.72;100.00;101855.81;5223995;28;20021;-76
2023/01/06 00:54:43;;;;;;;7.45;1.70;;;;;;;10.76;100.00;101857.22;5225189;28;20082;-77
2023/01/06 00:57:14;;;;;;;6.47;1.45;;;;;;;10.74;100.00;101854.66;5212831;28;20021;-76
2023/01/06 00:59:44;;;;;;;6.63;1.60;;;;;;;10.74;100.00;101860.03;5212102;28;20025;-76
2023/01/06 01:02:15;;;;;;;4.28;1.10;;;;;;;10.73;100.00;101852.97;5216340;28;20032;-76
2023/01/06 01:04:45;;;;;;;2.95;1.02;;;;;;;10.72;100.00;101847.75;5221006;28;20116;-77
2023/01/06 01:07:16;;;;;;;3.08;1.00;;;;;;;10.72;100.00;101837.88;5215135;28;20080;-76
2023/01/06 01:09:46;;;;;;;6.65;0.90;;;;;;;10.70;100.00;101837.19;5204414;28;20083;-76
2023/01/06 01:12:17;;;;;;;11.00;1.58;;;;;;;10.73;100.00;101842.25;5204486;28;20091;-77
2023/01/06 01:14:50;;;;;;;3.03;0.80;;;;;;;10.70;100.00;101836.34;5204747;28;20103;-77
2023/01/06 01:17:26;;;;;;;5.65;0.90;;;;;;;10.71;100.00;101829.97;5211378;28;20029;-76
2023/01/06 01:19:58;;;;;;;4.93;1.10;;;;;;;10.71;100.00;101828.13;5211902;28;20025;-77
2023/01/06 01:22:30;;;;;;;7.93;0.95;;;;;;;10.71;100.00;101820.09;5224888;28;20021;-76
2023/01/06 01:25:00;;;;;;;7.50;1.85;;;;;;;10.73;100.00;101825.28;5217190;28;20033;-76
2023/01/06 01:27:31;;;;;;;2.63;0.70;;;;;;;10.77;100.00;101821.34;5219288;28;20029;-76
2023/01/06 01:30:01;;;;;;;5.78;0.90;;;;;;;10.78;100.00;101814.97;5213903;28;20021;-76
2023/01/06 01:32:32;;;;;;;2.42;0.82;;;;;;;10.83;100.00;101810.03;5225168;28;20017;-76
2023/01/06 01:35:03;;;;;;;3.65;1.08;;;;;;;10.85;100.00;101810.75;5212096;28;20478;-76
2023/01/06 01:37:33;;;;;;;4.63;0.98;;;;;;;10.88;100.00;101799.69;5203054;28;20040;-76
2023/01/06 01:40:04;;;;;;;5.22;0.93;;;;;;;10.85;100.00;101791.94;5215645;28;20494;-76
2023/01/06 01:42:35;;;;;;;6.57;1.15;;;;;;;10.85;100.00;101794.63;5211789;28;20024;-76
2023/01/06 01:45:14;;;;;;;4.03;1.05;;;;;;;10.88;100.00;101797.00;5223310;28;20443;-75
2023/01/06 01:47:50;;;;;;;3.35;0.80;;;;;;;10.91;100.00;101791.38;5204311;28;20559;-75
2023/01/06 01:50:41;;;;;;;5.40;1.15;;;;;;;10.96;100.00;101801.66;5216825;28;20048;-76
2023/01/06 01:53:17;;;;;;;6.75;0.85;;;;;;;10.96;100.00;101807.03;5202601;28;20585;-76
2023/01/06 01:55:51;;;;;;;3.28;1.02;;;;;;;10.92;100.00;101806.47;5202886;28;20025;-76
2023/01/06 01:58:25;;;;;;;3.45;1.20;;;;;;;10.88;100.00;101797.00;5207262;28;20384;-76
2023/01/06 02:00:56;;;;;;;3.35;0.93;;;;;;;10.90;100.00;101805.78;5211232;28;20033;-76
2023/01/06 02:03:27;;;;;;;7.53;1.20;;;;;;;10.91;100.00;101795.88;5208989;28;20470;-76
2023/01/06 02:06:01;;;;;;;6.93;1.00;;;;;;;10.87;100.00;101801.53;5224608;28;20021;-77
2023/01/06 02:08:54;;;;;;;7.57;1.87;;;;;;;10.84;100.00;101796.47;5224595;28;20082;-76
2023/01/06 02:11:28;;;;;;;3.45;1.05;;;;;;;10.83;100.00;101789.38;5206425;28;20040;-76
2023/01/06 02:14:08;;;;;;;7.93;0.90;;;;;;;10.84;100.00;101792.91;5204129;28;20033;-75
2023/01/06 02:17:03;;;;;;;2.15;0.93;;;;;;;10.84;100.00;101785.75;5217609;28;20130;-76
2023/01/06 02:20:01;;;;;;;7.27;1.13;;;;;;;10.80;100.00;101789.69;5210942;28;20028;-76
2023/01/06 02:22:50;;;;;;;6.72;1.20;;;;;;;10.82;100.00;101789.53;5224573;28;20107;-76
2023/01/06 02:25:50;;;;;;;10.75;1.20;;;;;;;10.84;100.00;101779.50;5224486;28;20032;-76
2023/01/06 02:28:40;;;;;;;6.63;1.05;;;;;;;10.84;100.00;101780.38;5214676;28;20036;-76
2023/01/06 02:31:35;;;;;;;2.97;1.00;;;;;;;10.82;100.00;101771.59;5209625;28;20393;-77
2023/01/06 02:34:24;;;;;;;6.23;2.20;;;;;;;10.79;100.00;101773.72;5217908;28;20036;-76
2023/01/06 02:37:25;;;;;;;7.90;1.30;;;;;;;10.82;100.00;101766.22;5223727;28;20397;-76
2023/01/06 02:40:25;;;;;;;8.63;1.50;;;;;;;10.78;100.00;101747.88;5213586;28;20595;-76
2023/01/06 02:43:28;;;;;;;4.90;1.13;;;;;;;10.78;100.00;101761.28;5207946;28;20021;-76
2023/01/06 02:46:11;;;;;;;3.50;0.88;;;;;;;10.78;100.00;101756.78;5207933;28;20405;-77
2023/01/06 02:49:01;;;;;;;11.13;1.63;;;;;;;10.78;100.00;101755.94;5224963;28;20028;-76
2023/01/06 02:51:52;;;;;;;3.67;1.02;;;;;;;10.82;100.00;101757.34;5226395;28;20063;-77
2023/01/06 02:54:39;;;;;;;5.80;1.17;;;;;;;10.84;100.00;101753.53;5217432;28;20091;-77
2023/01/06 02:57:20;;;;;;;5.93;1.17;;;;;;;10.86;100.00;101756.06;5214128;28;20044;-76
2023/01/06 03:00:11;;;;;;;2.10;0.85;;;;;;;10.86;100.00;101756.06;5214206;28;20068;-76
2023/01/06 03:02:47;;;;;;;5.40;1.50;;;;;;;10.84;100.00;101758.03;5228182;28;20385;-77
2023/01/06 03:05:18;;;;;;;4.68;1.13;;;;;;;10.80;100.00;101754.81;5226414;28;20052;-76
2023/01/06 03:07:58;;;;;;;2.13;0.95;;;;;;;10.81;100.00;101750.28;5227720;28;20035;-77
2023/01/06 03:10:29;;;;;;;4.55;1.92;;;;;;;10.85;100.00;101749.84;5227302;28;20024;-76
2023/01/06 03:13:14;;;;;;;3.78;1.00;;;;;;;10.80;100.00;101737.84;5227655;28;20032;-77
2023/01/06 03:15:52;;;;;;;7.97;1.00;;;;;;;10.79;100.00;101750.44;5219823;28;20025;-76
2023/01/06 03:18:25;;;;;;;9.75;1.20;;;;;;;10.84;100.00;101758.03;5227680;28;20036;-77
2023/01/06 03:21:00;;;;;;;2.65;0.73;;;;;;;10.81;100.00;101756.50;5212732;28;20033;-77
2023/01/06 03:23:34;;;;;;;3.75;1.40;;;;;;;10.83;100.00;101757.19;5227702;28;20016;-76
2023/01/06 03:26:05;;;;;;;5.05;0.82;;;;;;;10.81;100.00;101743.06;5226438;28;20554;-77
2023/01/06 03:28:36;;;;;;;8.57;1.30;;;;;;;10.81;100.00;101752.97;5215823;28;20056;-77
2023/01/06 03:31:15;;;;;;;2.83;0.90;;;;;;;10.78;100.00;101748.72;5219842;28;20051;-76
2023/01/06 03:34:17;;;;;;;4.65;0.90;;;;;;;10.85;100.00;101749.84;5220852;28;20043;-76
2023/01/06 03:36:47;;;;;;;3.75;0.90;;;;;;;10.85;100.00;101744.47;5213685;28;20056;-77
2023/01/06 03:39:28;;;;;;;5.03;0.95;;;;;;;10.82;100.00;101750.13;5227048;28;20048;-76
2023/01/06 03:45:07;;;;;;;2.20;0.80;;;;;;;10.82;100.00;101749.28;5219862;28;20523;-76
2023/01/06 03:47:52;;;;;;;9.82;1.05;;;;;;;10.82;100.00;101743.91;5215637;28;20074;-77
2023/01/06 03:50:30;;;;;;;1.13;0.77;;;;;;;10.78;100.00;101732.63;5221705;28;20025;-77
2023/01/06 03:53:40;;;;;;;1.77;0.85;;;;;;;10.74;100.00;101725.84;5205462;28;20039;-76
2023/01/06 03:56:20;;;;;;;5.40;1.00;;;;;;;10.72;100.00;101727.00;5199130;28;20401;-76
2023/01/06 03:58:54;;;;;;;3.33;1.13;;;;;;;10.74;100.00;101727.69;5205556;28;20033;-77
2023/01/06 04:01:25;;;;;;;4.63;1.13;;;;;;;10.69;100.00;101720.06;5208620;28;20030;-77
2023/01/06 04:03:56;;;;;;;3.65;1.13;;;;;;;10.74;100.00;101711.56;5227496;28;20039;-77
2023/01/06 04:06:27;;;;;;;6.80;1.13;;;;;;;10.65;100.00;101699.91;5213491;28;20021;-77
2023/01/06 04:08:58;;;;;;;5.45;0.90;;;;;;;10.66;100.00;101696.22;5215847;28;20025;-76
2023/01/06 04:14:17;;;;;;;2.75;0.80;;;;;;;10.64;100.00;101700.88;5212390;28;20049;-76
2023/01/06 04:16:48;;;;;;;3.58;0.80;;;;;;;10.65;100.00;101699.06;5220654;28;20102;-77
2023/01/06 04:19:18;;;;;;;3.95;0.80;;;;;;;10.59;100.00;101690.59;5223726;28;20033;-76
2023/01/06 04:21:49;;;;;;;2.85;0.82;;;;;;;10.59;100.00;101692.41;5205521;28;20102;-77
2023/01/06 04:24:19;;;;;;;3.95;1.45;;;;;;;10.57;100.00;101695.25;5223376;28;20024;-76
2023/01/06 04:26:50;;;;;;;3.63;0.82;;;;;;;10.57;100.00;101691.72;5226169;28;20052;-76
2023/01/06 04:29:20;;;;;;;4.25;0.90;;;;;;;10.56;100.00;101685.50;5213280;28;20489;-77
2023/01/06 04:31:51;;;;;;;4.88;1.00;;;;;;;10.55;100.00;101688.34;5225883;28;20028;-77
2023/01/06 04:34:21;;;;;;;2.97;0.98;;;;;;;10.50;100.00;101675.38;5224075;28;20153;-76
2023/01/06 04:36:51;;;;;;;1.60;0.70;;;;;;;10.47;100.00;101664.91;5212675;28;20040;-77
2023/01/06 04:39:22;;;;;;;5.13;1.20;;;;;;;10.47;100.00;101662.25;5225876;28;20065;-76
2023/01/06 04:41:52;;;;;;;1.77;0.93;;;;;;;10.57;100.00;101663.06;5225589;28;20477;-76
2023/01/06 04:44:24;;;;;;;7.22;0.70;;;;;;;10.54;100.00;101652.63;5217309;28;20108;-77
2023/01/06 04:46:54;;;;;;;3.08;1.00;;;;;;;10.57;100.00;101657.69;5218705;28;20028;-76
2023/01/06 04:49:24;;;;;;;3.97;0.80;;;;;;;10.59;100.00;101655.72;5205423;28;20090;-77
2023/01/06 04:51:55;;;;;;;3.55;0.85;;;;;;;10.45;100.00;101653.50;5217826;28;20060;-76
2023/01/06 04:54:25;;;;;;;3.10;0.70;;;;;;;10.45;100.00;101650.81;5216464;28;20477;-77
2023/01/06 04:56:56;;;;;;;2.53;0.70;;;;;;;10.45;100.00;101650.81;5221329;28;20183;-77
2023/01/06 04:59:26;;;;;;;1.63;0.70;;;;;;;10.48;100.00;101644.31;5205157;28;20060;-76
2023/01/06 05:01:57;;;;;;;1.15;0.80;;;;;;;10.41;100.00;101644.06;5203343;28;20026;-76
2023/01/06 05:04:27;;;;;;;4.07;1.20;;;;;;;10.40;100.00;101649.56;5204876;28;20456;-76
2023/01/06 05:06:58;;;;;;;1.00;0.60;;;;;;;10.37;100.00;101656.06;5205067;28;20049;-76
2023/01/06 05:09:28;;;;;;;2.70;0.60;;;;;;;10.38;100.00;101649.69;5206476;28;20029;-76
2023/01/06 05:11:58;;;;;;;3.63;0.98;;;;;;;10.38;100.00;101649.69;5216371;28;20032;-76
2023/01/06 05:14:29;;;;;;;2.40;0.70;;;;;;;10.41;100.00;101643.22;5207236;28;20032;-76
2023/01/06 05:16:59;;;;;;;4.63;0.88;;;;;;;10.41;100.00;101654.78;5208424;28;20029;-76
2023/01/06 05:19:30;;;;;;;6.65;2.15;;;;;;;10.41;100.00;101649.41;5209211;28;20392;-76
2023/01/06 05:22:00;;;;;;;2.03;0.75;;;;;;;10.39;100.00;101640.66;5225089;28;20029;-76
2023/01/06 05:24:31;;;;;;;2.25;0.75;;;;;;;10.43;100.00;101650.09;5211634;28;20021;-77
2023/01/06 05:27:01;;;;;;;3.97;0.80;;;;;;;10.42;100.00;101655.63;5212450;28;20029;-77
2023/01/06 05:29:32;;;;;;;2.75;0.75;;;;;;;10.42;100.00;101659.16;5224206;28;20034;-75
2023/01/06 05:32:04;;;;;;;4.18;0.93;;;;;;;10.41;100.00;101653.94;5209732;28;20498;-77
2023/01/06 05:34:35;;;;;;;5.45;0.85;;;;;;;10.43;100.00;101668.88;5212887;28;20079;-76
2023/01/06 05:37:05;;;;;;;3.83;0.77;;;;;;;10.40;100.00;101665.66;5211725;28;20390;-77
2023/01/06 05:39:35;;;;;;;4.15;1.00;;;;;;;10.40;100.00;101660.31;5224562;28;20025;-76
2023/01/06 05:42:06;;;;;;;2.90;0.88;;;;;;;10.49;100.00;101654.91;5209846;28;20117;-76
2023/01/06 05:44:36;;;;;;;3.33;0.90;;;;;;;10.46;100.00;101668.59;5225129;28;20025;-76
2023/01/06 05:47:07;;;;;;;2.17;1.17;;;;;;;10.48;100.00;101671.13;5211499;28;20025;-77
2023/01/06 05:49:37;;;;;;;1.70;1.02;;;;;;;10.47;100.00;101664.09;5213003;28;20026;-76
2023/01/06 05:52:08;;;;;;;3.85;1.27;;;;;;;10.43;100.00;101666.19;5216922;28;20068;-77
2023/01/06 05:54:39;;;;;;;2.05;1.00;;;;;;;10.43;100.00;101652.78;5217066;28;20040;-77
2023/01/06 05:57:10;;;;;;;4.50;0.82;;;;;;;10.48;100.00;101655.03;5218341;28;20481;-77
2023/01/06 05:59:40;;;;;;;3.03;1.10;;;;;;;10.47;100.00;101656.88;5217344;28;20060;-75
2023/01/06 06:02:11;;;;;;;3.35;1.00;;;;;;;10.50;100.00;101648.53;5206689;28;20434;-76
2023/01/06 06:04:41;;;;;;;1.90;0.60;;;;;;;10.51;100.00;101642.19;5204575;28;20508;-76
2023/01/06 06:07:12;;;;;;;1.65;0.82;;;;;;;10.45;100.00;101632.03;5212582;28;20044;-76
2023/01/06 06:09:42;;;;;;;1.10;0.70;;;;;;;10.48;100.00;101633.56;5208332;28;20402;-76
2023/01/06 06:12:13;;;;;;;7.25;1.00;;;;;;;10.50;100.00;101637.81;5203791;28;20474;-76
2023/01/06 06:14:43;;;;;;;1.10;0.80;;;;;;;10.53;100.00;101640.19;5216859;28;20485;-76
2023/01/06 06:17:14;;;;;;;2.63;0.82;;;;;;;10.53;100.00;101642.88;5211143;28;20037;-76
2023/01/06 06:19:44;;;;;;;5.68;1.20;;;;;;;10.62;100.00;101652.72;5216725;28;20033;-75
2023/01/06 06:22:15;;;;;;;1.27;0.70;;;;;;;10.67;100.00;101627.28;5203732;28;20021;-76
2023/01/06 06:24:45;;;;;;;0.80;0.50;;;;;;;10.79;100.00;101634.16;5222114;28;20040;-76
2023/01/06 06:27:15;;;;;;;2.85;0.90;;;;;;;10.77;100.00;101637.00;5211428;28;20096;-76
2023/01/06 06:29:46;;;;;;;1.70;0.90;;;;;;;10.78;100.00;101641.34;5223724;28;20053;-76
2023/01/06 06:32:16;;;;;;;2.30;0.68;;;;;;;10.86;100.00;101656.72;5209543;28;20021;-76
2023/01/06 06:34:47;;;;;;;1.95;0.73;;;;;;;10.89;100.00;101651.94;5208772;28;20398;-76
2023/01/06 06:37:17;;;;;;;6.13;1.25;;;;;;;10.86;100.00;101656.72;5202421;28;20025;-76
2023/01/06 06:39:48;;;;;;;1.15;0.65;;;;;;;10.95;100.00;101652.31;5218480;28;20025;-76
2023/01/06 06:42:18;;;;;;;3.75;0.90;;;;;;;10.93;100.00;101660.50;5212218;28;20017;-76
2023/01/06 06:44:48;;;;;;;2.53;0.80;;;;;;;10.94;100.00;101664.88;5224523;28;20661;-76
2023/01/06 06:47:19;;;;;;;1.65;1.00;;;;;;;10.92;100.00;101666.88;5218066;28;20061;-76
2023/01/06 06:49:50;;;;;;;3.55;0.77;;;;;;;10.94;100.00;101656.81;5203418;28;20033;-76
2023/01/06 06:52:20;;;;;;;3.38;1.30;;;;;;;10.96;100.00;101659.38;5215752;28;20029;-76
2023/01/06 06:54:51;;;;;;;13.93;5.97;;;;;;;10.98;100.00;101677.00;5202327;28;20031;-76
2023/01/06 06:57:21;;;;;;;2.10;1.60;;;;;;;10.99;100.00;101659.91;5203833;28;20116;-76
2023/01/06 06:59:51;;;;;;;4.70;0.80;;;;;;;10.99;100.00;101669.78;5205770;28;20021;-76
2023/01/06 07:02:22;;;;;;;2.65;0.73;;;;;;;10.98;100.00;101673.47;5223845;28;20025;-76
2023/01/06 07:04:52;;;;;;;1.83;0.70;;;;;;;10.99;100.00;101669.78;5210836;28;20028;-76
2023/01/06 07:07:23;;;;;;;0.80;0.63;;;;;;;10.96;100.00;101679.00;5212466;28;20035;-76
2023/01/06 07:09:53;;;;;;;0.98;0.80;;;;;;;10.91;100.00;101675.94;5217129;28;20053;-77
2023/01/06 07:12:24;;;;;;;1.33;0.70;;;;;;;10.89;100.00;101684.13;5216009;28;20025;-77
2023/01/06 07:14:54;;;;;;;2.70;1.15;;;;;;;10.87;100.00;101679.91;5223007;28;20025;-77
2023/01/06 07:17:26;;;;;;;2.95;0.95;;;;;;;10.92;100.00;101684.81;5217543;28;20028;-76
2023/01/06 07:19:57;;;;;;;1.35;0.90;;;;;;;10.92;100.00;101688.34;5223558;28;20083;-76
2023/01/06 07:22:27;;;;;;;7.90;5.40;;;;;;;10.98;100.00;101685.06;5210833;28;20371;-76
2023/01/06 07:24:58;;;;;;;1.17;0.73;;;;;;;10.96;100.00;101699.66;5213739;28;20021;-76
2023/01/06 07:27:28;;;;;;;2.15;0.98;;;;;;;10.91;100.00;101696.56;5204911;28;20486;-76
2023/01/06 07:29:59;;;;;;;1.40;0.93;;;;;;;10.90;100.00;101701.09;5206513;28;20396;-76
2023/01/06 07:32:30;;;;;;;6.30;3.40;;;;;;;10.87;100.00;101704.91;5220095;28;20037;-76
2023/01/06 07:35:00;;;;;;;2.22;1.20;;;;;;;10.83;100.00;101702.66;5206232;28;20021;-76
2023/01/06 07:37:31;;;;;;;8.18;5.60;;;;;;;10.82;100.00;101707.19;5220450;28;20496;-76
2023/01/06 07:40:01;;;;;;;2.15;0.88;;;;;;;10.84;100.00;101704.34;5211042;28;20116;-75
2023/01/06 07:42:31;;;;;;;1.52;0.75;;;;;;;10.83;100.00;101708.88;5227077;28;20059;-77
2023/01/06 07:45:09;;;;;;;2.53;0.85;;;;;;;10.81;100.00;101712.69;5226552;28;20033;-76
2023/01/06 07:47:39;;;;;;;3.10;1.00;;;;;;;10.80;100.00;101706.50;5227354;28;20024;-76
2023/01/06 07:50:09;;;;;;;3.33;2.15;;;;;;;10.78;100.00;101726.41;5213511;28;20029;-76
2023/01/06 07:52:40;;;;;;;8.38;1.35;;;;;;;10.78;100.00;101727.25;5225826;28;20020;-76
2023/01/06 07:55:10;;;;;;;27.40;17.08;;;;;;;10.75;100.00;101730.25;5222355;28;20056;-76
2023/01/06 07:57:41;;;;;;;8.55;5.32;;;;;;;10.76;100.00;101745.34;5206837;28;20028;-77
2023/01/06 08:00:12;;;;;;;5.55;1.13;;;;;;;10.80;100.00;101741.38;5214256;28;20741;-77
2023/01/06 08:02:43;;;;;;;7.30;1.58;;;;;;;10.79;100.00;101758.50;5225792;28;20377;-77
2023/01/06 08:05:14;;;;;;;3.78;1.00;;;;;;;10.78;100.00;101755.94;5212736;28;20040;-77
2023/01/06 08:07:45;;;;;;;5.78;1.15;;;;;;;10.58;100.00;101750.59;5209636;28;20053;-76
2023/01/06 08:10:16;;;;;;;2.50;1.80;;;;;;;10.55;100.00;101753.59;5205068;28;20692;-77
2023/01/06 08:12:46;;;;;;;2.30;1.35;;;;;;;10.50;100.00;101752.34;5217139;28;20025;-77
2023/01/06 08:15:17;;;;;;;5.43;1.98;;;;;;;10.48;100.00;101744.41;5212400;28;20051;-77
2023/01/06 08:17:52;;;;;;;2.83;1.80;;;;;;;10.40;100.00;101764.91;5207580;28;20039;-77
2023/01/06 08:20:23;;;;;;;2.53;1.48;;;;;;;10.31;100.00;101758.56;5224697;28;20028;-77
2023/01/06 08:22:53;;;;;;;6.07;2.22;;;;;;;10.30;100.00;101757.72;5213714;28;20025;-77
2023/01/06 08:25:24;;;;;;;10.52;2.10;;;;;;;10.29;100.00;101764.06;5214902;28;20029;-77
2023/01/06 08:27:57;;;;;;;3.40;2.30;;;;;;;10.33;100.00;101757.41;5225359;28;20019;-77
2023/01/06 08:30:27;;;;;;;3.63;2.00;;;;;;;10.30;100.00;101757.72;5210836;28;20033;-77
2023/01/06 08:32:58;;;;;;;5.05;1.73;;;;;;;10.26;100.00;101760.81;5204717;28;20032;-78
2023/01/06 08:35:29;;;;;;;1.77;1.45;;;;;;;10.26;100.00;101758.13;5209497;28;20025;-78
2023/01/06 08:37:59;;;;;;;3.88;2.30;;;;;;;10.29;100.00;101771.25;5227931;28;20071;-78
2023/01/06 08:40:30;;;;;;;10.15;2.85;;;;;;;10.37;100.00;101763.34;5216801;28;20022;-78
2023/01/06 08:43:00;;;;;;;5.82;2.25;;;;;;;10.30;100.00;101773.81;5216684;28;20473;-78
2023/01/06 08:45:31;;;;;;;4.47;2.15;;;;;;;10.34;100.00;101777.03;5227997;28;20081;-77
2023/01/06 08:48:01;;;;;;;4.47;2.05;;;;;;;10.32;100.00;101773.66;5213625;28;20035;-77
2023/01/06 08:50:31;;;;;;;3.92;1.85;;;;;;;10.37;100.00;101769.56;5213144;28;20037;-78
2023/01/06 08:53:02;;;;;;;8.55;4.25;;;;;;;10.43;100.00;101778.88;5212852;28;20025;-77
2023/01/06 08:55:33;;;;;;;6.78;3.53;;;;;;;10.51;100.00;101789.75;5211526;28;20553;-78
2023/01/06 08:58:04;;;;;;;4.72;2.33;;;;;;;10.59;100.00;101786.31;5212086;28;20064;-78
2023/01/06 09:00:44;;;;;;;6.22;3.08;;;;;;;10.69;100.00;101791.69;5225797;28;20024;-78
2023/01/06 09:03:14;;;;;;;9.82;4.72;;;;;;;10.79;100.00;101796.06;5208006;28;20132;-77
2023/01/06 09:05:54;;;;;;;6.47;4.35;;;;;;;10.82;100.00;101801.13;5215547;28;20020;-77
2023/01/06 09:08:25;;;;;;;3.20;1.80;;;;;;;10.84;100.00;101807.22;5219240;28;20401;-77
2023/01/06 09:10:55;;;;;;;6.68;2.75;;;;;;;10.85;100.00;101808.06;5205376;28;20104;-77
2023/01/06 09:13:26;;;;;;;3.28;2.28;;;;;;;10.86;100.00;101804.38;5217429;28;20053;-78
2023/01/06 09:15:59;;;;;;;2.55;1.73;;;;;;;10.92;100.00;101801.09;5211737;28;20016;-78
2023/01/06 09:18:37;;;;;;;7.97;3.78;;;;;;;10.94;100.00;101800.94;5214087;28;20029;-77
2023/01/06 09:21:08;;;;;;;4.82;2.13;;;;;;;10.97;100.00;101806.88;5206702;28;20032;-77
2023/01/06 09:23:38;;;;;;;4.35;1.77;;;;;;;11.00;100.00;101800.41;5216639;28;20025;-77
2023/01/06 09:26:13;;;;;;;5.22;1.90;;;;;;;11.01;100.00;101816.34;5206380;28;20032;-77
2023/01/06 09:28:44;;;;;;;4.30;1.80;;;;;;;11.03;100.00;101817.03;5217463;28;20081;-77
2023/01/06 09:31:17;;;;;;;4.47;1.73;;;;;;;11.07;100.00;101818.44;5211737;28;20025;-77
2023/01/06 09:33:47;;;;;;;5.18;1.80;;;;;;;11.10;100.00;101823.53;5217192;28;20485;-77
2023/01/06 09:36:18;;;;;;;3.47;1.73;;;;;;;11.19;100.00;101832.53;5213755;28;20035;-78
2023/01/06 09:38:48;;;;;;;6.30;2.22;;;;;;;11.23;100.00;101849.22;5220874;28;20021;-77
2023/01/06 09:41:52;;;;;;;8.43;2.00;;;;;;;11.23;100.00;101852.75;5215379;28;20393;-77
2023/01/06 09:44:35;;;;;;;4.07;1.70;;;;;;;11.18;100.00;101848.81;5194544;28;20048;-78
2023/01/06 09:47:10;;;;;;;3.90;1.70;;;;;;;11.21;100.00;101841.31;5216221;28;20390;-77
2023/01/06 09:49:56;;;;;;;4.13;2.00;;;;;;;11.24;100.00;101848.22;5202734;28;20091;-78
2023/01/06 09:53:00;;;;;;;3.15;1.70;;;;;;;11.23;100.00;101850.06;5207039;28;20111;-77
2023/01/06 09:55:46;;;;;;;;;;;;;;;11.29;100.00;101848.63;5218567;28;20401;-77
2023/01/06 09:58:45;;;;;;;14.50;8.10;;;;;;;11.33;100.00;101850.88;5218945;28;19916;-77
2023/01/06 10:01:29;;;;;;;5.07;3.33;;;;;;;11.37;100.00;101852.28;5210197;28;20022;-77
2023/01/06 10:04:16;;;;;;;5.63;3.75;;;;;;;11.40;100.00;101857.38;5215855;28;20025;-77
2023/01/06 10:07:19;;;;;;;6.07;3.28;;;;;;;11.59;100.00;101842.13;5215703;28;20112;-77
2023/01/06 10:10:19;;;;;;;19.25;11.07;;;;;;;11.99;100.00;101846.34;5213922;28;20033;-77
2023/01/06 10:13:38;;;;;;;4.65;2.95;;;;;;;11.99;100.00;101839.13;5211895;28;21665;-77
2023/01/06 10:16:39;;;;;;;2.00;1.45;;;;;;;11.87;100.00;101854.63;5218316;28;20033;-77
2023/01/06 10:19:42;;;;;;;2.60;1.20;;;;;;;11.82;100.00;101858.75;5218205;28;20655;-77
2023/01/06 10:22:50;;;;;;;4.13;2.80;;;;;;;11.76;100.00;101857.50;5219372;28;20397;-77
2023/01/06 10:25:50;;;;;;;5.05;3.70;;;;;;;11.67;100.00;101864.59;5222135;28;20071;-77
2023/01/06 10:28:29;;;;;;;3.42;2.35;;;;;;;11.57;100.00;101853.03;5194996;28;20029;-77
2023/01/06 10:31:04;;;;;;;6.25;2.15;;;;;;;11.57;100.00;101852.19;5203496;28;20031;-77
2023/01/06 10:33:40;;;;;;;12.55;8.13;;;;;;;11.78;100.00;101844.72;5203006;28;20026;-77
2023/01/06 10:36:14;;;;;;;3.33;2.20;;;;;;;11.98;100.00;101842.81;5224082;28;20071;-77
2023/01/06 10:38:48;;;;;;;3.75;1.63;;;;;;;11.88;100.00;101840.19;5207897;28;20021;-78
2023/01/06 10:41:23;;;;;;;3.23;1.30;;;;;;;11.83;100.00;101837.09;5224833;28;20443;-77
2023/01/06 10:43:54;;;;;;;3.92;1.85;;;;;;;11.79;100.00;101840.19;5217320;28;20029;-77
2023/01/06 10:46:34;;;;;;;2.78;1.50;;;;;;;11.69;100.00;101840.25;5214973;28;20032;-77
2023/01/06 10:49:14;;;;;;;3.15;1.17;;;;;;;11.46;100.00;101834.44;5223273;28;20029;-77
2023/01/06 10:51:51;;;;;;;2.97;1.88;;;;;;;11.41;100.00;101834.88;5208637;28;20116;-77
2023/01/06 10:54:26;;;;;;;6.93;3.00;;;;;;;11.35;100.00;101840.00;5222040;28;20025;-77
2023/01/06 10:57:04;;;;;;;1.75;1.55;;;;;;;11.17;100.00;101834.53;5208932;28;20454;-77
2023/01/06 11:00:11;;;;;;;3.38;2.08;;;;;;;11.21;100.00;101832.41;5223656;28;20546;-77
2023/01/06 11:02:47;;;;;;;3.15;1.92;;;;;;;11.05;100.00;101833.03;5214897;28;20024;-77
2023/01/06 11:05:22;;;;;;;5.22;2.88;;;;;;;11.06;100.00;101840.94;5219343;28;20040;-77
2023/01/06 11:08:07;;;;;;;2.65;1.63;;;;;;;11.05;100.00;101841.91;5206524;28;20026;-78
2023/01/06 11:10:43;;;;;;;2.90;1.47;;;;;;;10.93;100.00;101852.97;5206606;28;20029;-78
2023/01/06 11:13:34;;;;;;;4.68;2.80;;;;;;;10.96;100.00;101856.22;5218786;28;20030;-77
2023/01/06 11:16:16;;;;;;;3.47;1.95;;;;;;;10.93;100.00;101853.81;5215387;28;20032;-77
2023/01/06 11:18:53;;;;;;;2.58;1.83;;;;;;;10.92;100.00;101857.47;5215528;28;20116;-77
2023/01/06 11:21:48;;;;;;;5.93;2.60;;;;;;;10.90;100.00;101848.75;5224982;28;20063;-78
2023/01/06 11:24:21;;;;;;;12.82;6.00;;;;;;;10.81;100.00;101850.44;5226424;28;20017;-78
2023/01/06 11:26:54;;;;;;;27.88;11.70;;;;;;;10.82;100.00;101845.91;5228198;28;20029;-78
2023/01/06 11:29:44;;;;;;;61.22;21.90;;;;;;;10.81;100.00;101844.22;5223157;28;20103;-78
2023/01/06 11:32:17;;;;;;;53.70;20.05;;;;;;;10.80;100.00;101842.53;5220984;28;20025;-78
2023/01/06 11:34:53;;;;;;;14.98;5.18;;;;;;;10.81;100.00;101839.69;5206765;28;20033;-78
2023/01/06 11:37:39;;;;;;;8.48;3.90;;;;;;;10.80;100.00;101837.16;5207713;28;20029;-77
2023/01/06 11:40:24;;;;;;;15.30;6.05;;;;;;;10.77;100.00;101832.06;5219667;28;20471;-77
2023/01/06 11:43:02;;;;;;;10.60;3.60;;;;;;;10.81;100.00;101828.97;5226396;28;20021;-78
2023/01/06 11:45:38;;;;;;;52.22;35.70;;;;;;;10.90;100.00;101832.63;5222376;28;20040;-78
2023/01/06 11:48:18;;;;;;;9.80;7.93;;;;;;;10.96;100.00;101831.19;5218320;28;20036;-77
2023/01/06 11:50:57;;;;;;;7.38;5.72;;;;;;;11.00;100.00;101829.94;5218512;28;20025;-78
2023/01/06 11:53:28;;;;;;;7.65;3.80;;;;;;;10.94;100.00;101825.13;5206496;28;20037;-78
2023/01/06 11:56:06;;;;;;;5.25;4.00;;;;;;;10.81;100.00;101828.13;5206318;28;20052;-78
2023/01/06 11:58:52;;;;;;;5.38;3.63;;;;;;;10.79;100.00;101820.22;5212063;28;20029;-77
2023/01/06 12:01:32;;;;;;;;;;;;;;;10.76;100.00;101833.06;5212703;28;20025;-77